sensor_id;sensor_type;location;lat;lon;timestamp;P1;durP1;ratioP1;P2;durP2;ratioP2
40955;SDS011;26687;48.254;11.454;2022-08-01T00:02:41;2.72;;;2.22;;
40955;SDS011;26687;48.254;11.454;2022-08-01T00:05:41;2.30;;;2.03;;
40955;SDS011;26687;48.254;11.454;2022-08-01T00:08:43;2.33;;;2.13;;
40955;SDS011;26687;48.254;11.454;2022-08-01T00:11:43;1.95;;;1.80;;
40955;SDS011;26687;48.254;11.454;2022-08-01T00:14:43;2.00;;;1.85;;
40955;SDS011;26687;48.254;11.454;2022-08-01T00:17:44;2.10;;;1.88;;
40955;SDS011;26687;48.254;11.454;2022-08-01T00:20:44;2.97;;;2.03;;
40955;SDS011;26687;48.254;11.454;2022-08-01T00:23:44;1.98;;;1.83;;
40955;SDS011;26687;48.254;11.454;2022-08-01T00:26:47;1.58;;;1.48;;
40955;SDS011;26687;48.254;11.454;2022-08-01T00:29:47;3.58;;;2.00;;
40955;SDS011;26687;48.254;11.454;2022-08-01T00:32:47;1.90;;;1.80;;
40955;SDS011;26687;48.254;11.454;2022-08-01T00:35:47;1.92;;;1.75;;
40955;SDS011;26687;48.254;11.454;2022-08-01T00:38:48;2.10;;;1.90;;
40955;SDS011;26687;48.254;11.454;2022-08-01T00:41:48;1.77;;;1.67;;
40955;SDS011;26687;48.254;11.454;2022-08-01T00:44:48;2.83;;;2.10;;
40955;SDS011;26687;48.254;11.454;2022-08-01T00:47:48;2.07;;;1.87;;
40955;SDS011;26687;48.254;11.454;2022-08-01T00:50:48;1.87;;;1.77;;
40955;SDS011;26687;48.254;11.454;2022-08-01T00:53:49;2.80;;;1.85;;
40955;SDS011;26687;48.254;11.454;2022-08-01T00:56:50;2.15;;;1.60;;
40955;SDS011;26687;48.254;11.454;2022-08-01T00:59:50;2.72;;;1.88;;
40955;SDS011;26687;48.254;11.454;2022-08-01T01:02:50;2.22;;;1.50;;
40955;SDS011;26687;48.254;11.454;2022-08-01T01:05:54;4.05;;;2.10;;
40955;SDS011;26687;48.254;11.454;2022-08-01T01:09:09;1.70;;;1.60;;
40955;SDS011;26687;48.254;11.454;2022-08-01T01:12:15;2.13;;;1.90;;
40955;SDS011;26687;48.254;11.454;2022-08-01T01:24:40;2.50;;;1.93;;
40955;SDS011;26687;48.254;11.454;2022-08-01T01:31:15;2.10;;;1.90;;
40955;SDS011;26687;48.254;11.454;2022-08-01T01:34:17;2.13;;;2.03;;
40955;SDS011;26687;48.254;11.454;2022-08-01T01:37:18;2.20;;;1.80;;
40955;SDS011;26687;48.254;11.454;2022-08-01T01:40:19;2.60;;;2.05;;
40955;SDS011;26687;48.254;11.454;2022-08-01T01:43:19;2.92;;;1.90;;
40955;SDS011;26687;48.254;11.454;2022-08-01T01:46:21;2.13;;;1.73;;
40955;SDS011;26687;48.254;11.454;2022-08-01T01:49:26;1.90;;;1.80;;
40955;SDS011;26687;48.254;11.454;2022-08-01T01:52:27;3.05;;;2.10;;
40955;SDS011;26687;48.254;11.454;2022-08-01T01:55:27;2.20;;;2.00;;
40955;SDS011;26687;48.254;11.454;2022-08-01T01:58:28;3.10;;;2.08;;
40955;SDS011;26687;48.254;11.454;2022-08-01T02:01:29;2.08;;;1.90;;
40955;SDS011;26687;48.254;11.454;2022-08-01T02:04:31;2.22;;;2.13;;
40955;SDS011;26687;48.254;11.454;2022-08-01T02:07:32;2.80;;;1.90;;
40955;SDS011;26687;48.254;11.454;2022-08-01T02:10:32;2.33;;;1.95;;
40955;SDS011;26687;48.254;11.454;2022-08-01T02:13:34;3.38;;;2.17;;
40955;SDS011;26687;48.254;11.454;2022-08-01T02:16:35;2.28;;;2.13;;
40955;SDS011;26687;48.254;11.454;2022-08-01T02:19:37;2.50;;;2.30;;
40955;SDS011;26687;48.254;11.454;2022-08-01T02:22:40;2.05;;;1.85;;
40955;SDS011;26687;48.254;11.454;2022-08-01T02:25:42;2.22;;;2.00;;
40955;SDS011;26687;48.254;11.454;2022-08-01T02:28:49;3.38;;;1.88;;
40955;SDS011;26687;48.254;11.454;2022-08-01T02:31:50;3.95;;;2.00;;
40955;SDS011;26687;48.254;11.454;2022-08-01T02:34:51;2.30;;;2.10;;
40955;SDS011;26687;48.254;11.454;2022-08-01T02:37:52;2.28;;;2.10;;
40955;SDS011;26687;48.254;11.454;2022-08-01T02:40:55;3.00;;;2.30;;
40955;SDS011;26687;48.254;11.454;2022-08-01T02:43:59;2.75;;;1.98;;
40955;SDS011;26687;48.254;11.454;2022-08-01T02:47:00;2.10;;;1.98;;
40955;SDS011;26687;48.254;11.454;2022-08-01T02:50:02;2.38;;;1.90;;
40955;SDS011;26687;48.254;11.454;2022-08-01T02:53:02;2.75;;;2.30;;
40955;SDS011;26687;48.254;11.454;2022-08-01T02:56:04;2.33;;;2.00;;
40955;SDS011;26687;48.254;11.454;2022-08-01T02:59:06;2.63;;;1.95;;
40955;SDS011;26687;48.254;11.454;2022-08-01T03:02:06;2.40;;;2.20;;
40955;SDS011;26687;48.254;11.454;2022-08-01T03:05:07;2.60;;;2.40;;
40955;SDS011;26687;48.254;11.454;2022-08-01T03:08:08;2.25;;;2.10;;
40955;SDS011;26687;48.254;11.454;2022-08-01T03:11:09;2.30;;;2.10;;
40955;SDS011;26687;48.254;11.454;2022-08-01T03:14:12;2.25;;;2.08;;
40955;SDS011;26687;48.254;11.454;2022-08-01T03:17:12;4.97;;;2.13;;
40955;SDS011;26687;48.254;11.454;2022-08-01T03:20:14;2.22;;;2.03;;
40955;SDS011;26687;48.254;11.454;2022-08-01T03:23:14;2.45;;;2.08;;
40955;SDS011;26687;48.254;11.454;2022-08-01T03:26:15;2.30;;;2.10;;
40955;SDS011;26687;48.254;11.454;2022-08-01T03:29:17;3.47;;;2.30;;
40955;SDS011;26687;48.254;11.454;2022-08-01T03:32:18;5.00;;;2.10;;
40955;SDS011;26687;48.254;11.454;2022-08-01T03:35:19;2.92;;;2.60;;
40955;SDS011;26687;48.254;11.454;2022-08-01T03:38:24;2.88;;;2.20;;
40955;SDS011;26687;48.254;11.454;2022-08-01T03:41:27;2.50;;;2.20;;
40955;SDS011;26687;48.254;11.454;2022-08-01T03:44:28;2.40;;;2.20;;
40955;SDS011;26687;48.254;11.454;2022-08-01T03:47:32;2.50;;;2.30;;
40955;SDS011;26687;48.254;11.454;2022-08-01T03:50:33;3.08;;;2.50;;
40955;SDS011;26687;48.254;11.454;2022-08-01T03:53:34;3.15;;;2.05;;
40955;SDS011;26687;48.254;11.454;2022-08-01T03:56:35;2.30;;;2.10;;
40955;SDS011;26687;48.254;11.454;2022-08-01T03:59:37;2.30;;;2.08;;
40955;SDS011;26687;48.254;11.454;2022-08-01T04:02:38;3.50;;;2.05;;
40955;SDS011;26687;48.254;11.454;2022-08-01T04:05:42;3.40;;;2.25;;
40955;SDS011;26687;48.254;11.454;2022-08-01T04:08:42;2.13;;;1.92;;
40955;SDS011;26687;48.254;11.454;2022-08-01T04:11:42;2.43;;;1.83;;
40955;SDS011;26687;48.254;11.454;2022-08-01T04:14:42;3.78;;;2.28;;
40955;SDS011;26687;48.254;11.454;2022-08-01T04:17:43;3.20;;;1.95;;
40955;SDS011;26687;48.254;11.454;2022-08-01T04:20:43;2.40;;;2.20;;
40955;SDS011;26687;48.254;11.454;2022-08-01T04:23:43;2.55;;;2.35;;
40955;SDS011;26687;48.254;11.454;2022-08-01T04:26:45;2.28;;;2.00;;
40955;SDS011;26687;48.254;11.454;2022-08-01T04:29:46;3.67;;;2.03;;
40955;SDS011;26687;48.254;11.454;2022-08-01T04:32:47;2.30;;;2.10;;
40955;SDS011;26687;48.254;11.454;2022-08-01T04:35:48;3.03;;;2.55;;
40955;SDS011;26687;48.254;11.454;2022-08-01T04:38:50;2.10;;;1.90;;
40955;SDS011;26687;48.254;11.454;2022-08-01T04:41:50;2.00;;;1.90;;
40955;SDS011;26687;48.254;11.454;2022-08-01T04:44:51;3.47;;;1.75;;
40955;SDS011;26687;48.254;11.454;2022-08-01T04:47:51;2.92;;;1.90;;
40955;SDS011;26687;48.254;11.454;2022-08-01T04:50:51;2.40;;;2.20;;
40955;SDS011;26687;48.254;11.454;2022-08-01T04:53:52;3.77;;;2.13;;
40955;SDS011;26687;48.254;11.454;2022-08-01T04:56:52;3.00;;;2.10;;
40955;SDS011;26687;48.254;11.454;2022-08-01T04:59:53;3.45;;;1.90;;
40955;SDS011;26687;48.254;11.454;2022-08-01T05:02:56;2.65;;;1.95;;
40955;SDS011;26687;48.254;11.454;2022-08-01T05:05:56;3.38;;;2.15;;
40955;SDS011;26687;48.254;11.454;2022-08-01T05:08:57;2.08;;;1.90;;
40955;SDS011;26687;48.254;11.454;2022-08-01T05:11:57;3.13;;;1.98;;
40955;SDS011;26687;48.254;11.454;2022-08-01T05:14:59;2.17;;;1.90;;
40955;SDS011;26687;48.254;11.454;2022-08-01T05:17:59;3.47;;;1.90;;
40955;SDS011;26687;48.254;11.454;2022-08-01T05:20:59;2.55;;;2.00;;
40955;SDS011;26687;48.254;11.454;2022-08-01T05:24:00;1.95;;;1.85;;
40955;SDS011;26687;48.254;11.454;2022-08-01T05:27:00;3.00;;;1.90;;
40955;SDS011;26687;48.254;11.454;2022-08-01T05:30:01;2.95;;;1.90;;
40955;SDS011;26687;48.254;11.454;2022-08-01T05:33:01;2.17;;;1.98;;
40955;SDS011;26687;48.254;11.454;2022-08-01T05:36:01;4.45;;;2.30;;
40955;SDS011;26687;48.254;11.454;2022-08-01T05:39:01;3.23;;;2.10;;
40955;SDS011;26687;48.254;11.454;2022-08-01T05:42:02;2.17;;;1.97;;
40955;SDS011;26687;48.254;11.454;2022-08-01T05:45:02;2.03;;;1.92;;
40955;SDS011;26687;48.254;11.454;2022-08-01T05:48:02;2.50;;;2.30;;
40955;SDS011;26687;48.254;11.454;2022-08-01T05:51:02;4.78;;;2.00;;
40955;SDS011;26687;48.254;11.454;2022-08-01T05:54:03;2.40;;;2.20;;
40955;SDS011;26687;48.254;11.454;2022-08-01T05:57:03;2.40;;;1.83;;
40955;SDS011;26687;48.254;11.454;2022-08-01T06:00:04;2.33;;;1.92;;
40955;SDS011;26687;48.254;11.454;2022-08-01T06:03:04;1.70;;;1.60;;
40955;SDS011;26687;48.254;11.454;2022-08-01T06:06:04;3.22;;;2.00;;
40955;SDS011;26687;48.254;11.454;2022-08-01T06:09:05;1.63;;;1.52;;
40955;SDS011;26687;48.254;11.454;2022-08-01T06:12:05;3.03;;;1.83;;
40955;SDS011;26687;48.254;11.454;2022-08-01T06:15:05;2.93;;;2.27;;
40955;SDS011;26687;48.254;11.454;2022-08-01T06:18:06;3.47;;;2.00;;
40955;SDS011;26687;48.254;11.454;2022-08-01T06:21:06;1.90;;;1.70;;
40955;SDS011;26687;48.254;11.454;2022-08-01T06:24:06;2.85;;;2.17;;
40955;SDS011;26687;48.254;11.454;2022-08-01T06:27:06;2.10;;;1.90;;
40955;SDS011;26687;48.254;11.454;2022-08-01T06:30:07;2.55;;;2.05;;
40955;SDS011;26687;48.254;11.454;2022-08-01T06:33:07;2.03;;;1.83;;
40955;SDS011;26687;48.254;11.454;2022-08-01T06:36:08;2.60;;;1.80;;
40955;SDS011;26687;48.254;11.454;2022-08-01T06:39:09;2.42;;;2.22;;
40955;SDS011;26687;48.254;11.454;2022-08-01T06:42:09;4.40;;;1.92;;
40955;SDS011;26687;48.254;11.454;2022-08-01T06:45:10;6.78;;;2.30;;
40955;SDS011;26687;48.254;11.454;2022-08-01T06:48:11;2.42;;;2.20;;
40955;SDS011;26687;48.254;11.454;2022-08-01T06:51:11;2.47;;;2.27;;
40955;SDS011;26687;48.254;11.454;2022-08-01T06:54:15;2.50;;;2.30;;
40955;SDS011;26687;48.254;11.454;2022-08-01T06:57:16;3.65;;;2.30;;
40955;SDS011;26687;48.254;11.454;2022-08-01T07:00:16;3.33;;;2.65;;
40955;SDS011;26687;48.254;11.454;2022-08-01T07:03:18;3.08;;;2.00;;
40955;SDS011;26687;48.254;11.454;2022-08-01T07:06:18;2.45;;;2.25;;
40955;SDS011;26687;48.254;11.454;2022-08-01T07:09:18;3.63;;;2.10;;
40955;SDS011;26687;48.254;11.454;2022-08-01T07:12:19;2.83;;;2.10;;
40955;SDS011;26687;48.254;11.454;2022-08-01T07:15:19;3.67;;;2.38;;
40955;SDS011;26687;48.254;11.454;2022-08-01T07:18:22;2.33;;;2.13;;
40955;SDS011;26687;48.254;11.454;2022-08-01T07:21:22;2.20;;;2.10;;
40955;SDS011;26687;48.254;11.454;2022-08-01T07:24:22;2.60;;;2.40;;
40955;SDS011;26687;48.254;11.454;2022-08-01T07:27:22;3.40;;;2.38;;
40955;SDS011;26687;48.254;11.454;2022-08-01T07:30:22;2.50;;;2.13;;
40955;SDS011;26687;48.254;11.454;2022-08-01T07:33:23;3.10;;;2.30;;
40955;SDS011;26687;48.254;11.454;2022-08-01T07:36:23;2.60;;;2.40;;
40955;SDS011;26687;48.254;11.454;2022-08-01T07:39:23;3.05;;;2.72;;
40955;SDS011;26687;48.254;11.454;2022-08-01T07:42:23;8.03;;;4.47;;
40955;SDS011;26687;48.254;11.454;2022-08-01T07:45:23;2.00;;;1.80;;
40955;SDS011;26687;48.254;11.454;2022-08-01T07:48:24;3.70;;;2.17;;
40955;SDS011;26687;48.254;11.454;2022-08-01T07:51:25;5.32;;;3.25;;
40955;SDS011;26687;48.254;11.454;2022-08-01T07:54:25;10.40;;;5.57;;
40955;SDS011;26687;48.254;11.454;2022-08-01T07:57:27;4.88;;;3.08;;
40955;SDS011;26687;48.254;11.454;2022-08-01T08:00:27;4.37;;;2.80;;
40955;SDS011;26687;48.254;11.454;2022-08-01T08:03:28;4.45;;;3.15;;
40955;SDS011;26687;48.254;11.454;2022-08-01T08:06:28;3.93;;;2.60;;
40955;SDS011;26687;48.254;11.454;2022-08-01T08:09:28;2.70;;;2.50;;
40955;SDS011;26687;48.254;11.454;2022-08-01T08:12:29;2.53;;;2.33;;
40955;SDS011;26687;48.254;11.454;2022-08-01T08:15:29;3.17;;;2.88;;
40955;SDS011;26687;48.254;11.454;2022-08-01T08:18:29;2.47;;;2.23;;
40955;SDS011;26687;48.254;11.454;2022-08-01T08:21:29;5.80;;;3.13;;
40955;SDS011;26687;48.254;11.454;2022-08-01T08:24:30;6.60;;;3.65;;
40955;SDS011;26687;48.254;11.454;2022-08-01T08:27:30;3.07;;;2.77;;
40955;SDS011;26687;48.254;11.454;2022-08-01T08:30:30;4.30;;;2.92;;
40955;SDS011;26687;48.254;11.454;2022-08-01T08:33:31;5.32;;;3.17;;
40955;SDS011;26687;48.254;11.454;2022-08-01T08:36:31;3.03;;;2.72;;
40955;SDS011;26687;48.254;11.454;2022-08-01T08:39:31;3.70;;;2.73;;
40955;SDS011;26687;48.254;11.454;2022-08-01T08:42:31;3.10;;;2.53;;
40955;SDS011;26687;48.254;11.454;2022-08-01T08:45:32;2.77;;;2.57;;
40955;SDS011;26687;48.254;11.454;2022-08-01T08:48:32;2.92;;;2.63;;
40955;SDS011;26687;48.254;11.454;2022-08-01T08:51:34;2.80;;;2.60;;
40955;SDS011;26687;48.254;11.454;2022-08-01T08:54:34;2.45;;;2.25;;
40955;SDS011;26687;48.254;11.454;2022-08-01T08:57:35;2.95;;;2.50;;
40955;SDS011;26687;48.254;11.454;2022-08-01T09:00:35;6.88;;;2.95;;
40955;SDS011;26687;48.254;11.454;2022-08-01T09:03:36;3.90;;;2.85;;
40955;SDS011;26687;48.254;11.454;2022-08-01T09:06:37;4.70;;;2.85;;
40955;SDS011;26687;48.254;11.454;2022-08-01T09:09:37;6.35;;;2.97;;
40955;SDS011;26687;48.254;11.454;2022-08-01T09:12:37;3.17;;;2.40;;
40955;SDS011;26687;48.254;11.454;2022-08-01T09:18:40;2.83;;;1.80;;
40955;SDS011;26687;48.254;11.454;2022-08-01T09:22:01;2.80;;;2.25;;
40955;SDS011;26687;48.254;11.454;2022-08-01T09:28:03;3.70;;;1.88;;
40955;SDS011;26687;48.254;11.454;2022-08-01T09:31:05;2.65;;;1.63;;
40955;SDS011;26687;48.254;11.454;2022-08-01T09:34:06;1.88;;;1.65;;
40955;SDS011;26687;48.254;11.454;2022-08-01T09:37:07;1.77;;;1.63;;
40955;SDS011;26687;48.254;11.454;2022-08-01T09:40:07;1.83;;;1.73;;
40955;SDS011;26687;48.254;11.454;2022-08-01T09:43:11;2.55;;;1.70;;
40955;SDS011;26687;48.254;11.454;2022-08-01T09:46:12;2.00;;;1.83;;
40955;SDS011;26687;48.254;11.454;2022-08-01T09:49:12;2.78;;;2.10;;
40955;SDS011;26687;48.254;11.454;2022-08-01T09:52:16;3.05;;;2.00;;
40955;SDS011;26687;48.254;11.454;2022-08-01T09:55:20;2.88;;;1.63;;
40955;SDS011;26687;48.254;11.454;2022-08-01T09:58:21;1.88;;;1.70;;
40955;SDS011;26687;48.254;11.454;2022-08-01T10:01:21;3.13;;;1.75;;
40955;SDS011;26687;48.254;11.454;2022-08-01T10:04:22;2.03;;;1.70;;
40955;SDS011;26687;48.254;11.454;2022-08-01T10:07:24;2.87;;;1.73;;
40955;SDS011;26687;48.254;11.454;2022-08-01T10:10:24;4.60;;;2.70;;
40955;SDS011;26687;48.254;11.454;2022-08-01T10:13:24;2.95;;;1.40;;
40955;SDS011;26687;48.254;11.454;2022-08-01T10:16:25;1.47;;;1.30;;
40955;SDS011;26687;48.254;11.454;2022-08-01T10:19:27;2.28;;;1.00;;
40955;SDS011;26687;48.254;11.454;2022-08-01T10:22:27;3.42;;;1.50;;
40955;SDS011;26687;48.254;11.454;2022-08-01T10:25:33;2.78;;;2.13;;
40955;SDS011;26687;48.254;11.454;2022-08-01T10:28:34;1.38;;;1.15;;
40955;SDS011;26687;48.254;11.454;2022-08-01T10:31:36;2.28;;;1.42;;
40955;SDS011;26687;48.254;11.454;2022-08-01T10:34:36;2.13;;;1.33;;
40955;SDS011;26687;48.254;11.454;2022-08-01T10:37:37;1.83;;;1.08;;
40955;SDS011;26687;48.254;11.454;2022-08-01T10:40:37;2.65;;;1.30;;
40955;SDS011;26687;48.254;11.454;2022-08-01T10:43:37;2.27;;;1.20;;
40955;SDS011;26687;48.254;11.454;2022-08-01T10:46:38;1.40;;;1.30;;
40955;SDS011;26687;48.254;11.454;2022-08-01T10:49:47;2.03;;;1.40;;
40955;SDS011;26687;48.254;11.454;2022-08-01T10:53:04;2.13;;;1.15;;
40955;SDS011;26687;48.254;11.454;2022-08-01T10:56:05;1.80;;;1.27;;
40955;SDS011;26687;48.254;11.454;2022-08-01T10:59:10;2.10;;;1.30;;
40955;SDS011;26687;48.254;11.454;2022-08-01T11:02:19;1.58;;;1.13;;
40955;SDS011;26687;48.254;11.454;2022-08-01T11:05:25;1.48;;;1.13;;
40955;SDS011;26687;48.254;11.454;2022-08-01T11:08:25;2.33;;;1.20;;
40955;SDS011;26687;48.254;11.454;2022-08-01T11:11:26;1.33;;;1.02;;
40955;SDS011;26687;48.254;11.454;2022-08-01T11:14:26;2.35;;;1.10;;
40955;SDS011;26687;48.254;11.454;2022-08-01T11:17:39;2.83;;;1.10;;
40955;SDS011;26687;48.254;11.454;2022-08-01T11:20:54;1.30;;;1.20;;
40955;SDS011;26687;48.254;11.454;2022-08-01T11:23:54;1.20;;;1.08;;
40955;SDS011;26687;48.254;11.454;2022-08-01T11:30:31;1.77;;;0.88;;
40955;SDS011;26687;48.254;11.454;2022-08-01T11:36:41;1.20;;;1.08;;
40955;SDS011;26687;48.254;11.454;2022-08-01T11:39:41;1.50;;;1.17;;
40955;SDS011;26687;48.254;11.454;2022-08-01T11:42:41;1.00;;;1.00;;
40955;SDS011;26687;48.254;11.454;2022-08-01T11:45:52;3.13;;;1.30;;
40955;SDS011;26687;48.254;11.454;2022-08-01T11:52:24;1.85;;;1.08;;
40955;SDS011;26687;48.254;11.454;2022-08-01T11:55:24;2.05;;;1.10;;
40955;SDS011;26687;48.254;11.454;2022-08-01T11:58:26;1.95;;;1.02;;
40955;SDS011;26687;48.254;11.454;2022-08-01T12:01:26;1.85;;;1.40;;
40955;SDS011;26687;48.254;11.454;2022-08-01T12:04:44;1.58;;;1.48;;
40955;SDS011;26687;48.254;11.454;2022-08-01T12:07:44;1.50;;;0.90;;
40955;SDS011;26687;48.254;11.454;2022-08-01T12:10:49;0.93;;;0.80;;
40955;SDS011;26687;48.254;11.454;2022-08-01T12:13:49;1.10;;;1.00;;
40955;SDS011;26687;48.254;11.454;2022-08-01T12:16:51;1.10;;;1.00;;
40955;SDS011;26687;48.254;11.454;2022-08-01T12:19:52;2.72;;;0.90;;
40955;SDS011;26687;48.254;11.454;2022-08-01T12:22:53;0.90;;;0.70;;
40955;SDS011;26687;48.254;11.454;2022-08-01T12:25:53;2.35;;;0.90;;
40955;SDS011;26687;48.254;11.454;2022-08-01T12:28:53;1.67;;;0.90;;
40955;SDS011;26687;48.254;11.454;2022-08-01T12:31:53;2.53;;;1.00;;
40955;SDS011;26687;48.254;11.454;2022-08-01T12:34:54;1.43;;;0.80;;
40955;SDS011;26687;48.254;11.454;2022-08-01T12:37:56;4.47;;;1.42;;
40955;SDS011;26687;48.254;11.454;2022-08-01T12:40:56;3.72;;;0.85;;
40955;SDS011;26687;48.254;11.454;2022-08-01T12:43:56;1.63;;;0.70;;
40955;SDS011;26687;48.254;11.454;2022-08-01T12:46:57;1.60;;;0.90;;
40955;SDS011;26687;48.254;11.454;2022-08-01T12:49:57;2.55;;;1.20;;
40955;SDS011;26687;48.254;11.454;2022-08-01T12:52:57;3.67;;;1.20;;
40955;SDS011;26687;48.254;11.454;2022-08-01T12:55:58;4.97;;;1.48;;
40955;SDS011;26687;48.254;11.454;2022-08-01T12:58:58;3.03;;;1.20;;
40955;SDS011;26687;48.254;11.454;2022-08-01T13:02:07;3.72;;;1.23;;
40955;SDS011;26687;48.254;11.454;2022-08-01T13:05:08;2.63;;;1.15;;
40955;SDS011;26687;48.254;11.454;2022-08-01T13:08:13;3.55;;;1.05;;
40955;SDS011;26687;48.254;11.454;2022-08-01T13:11:14;1.95;;;0.93;;
40955;SDS011;26687;48.254;11.454;2022-08-01T13:14:27;2.25;;;0.88;;
40955;SDS011;26687;48.254;11.454;2022-08-01T13:17:31;3.17;;;1.10;;
40955;SDS011;26687;48.254;11.454;2022-08-01T13:20:32;3.75;;;0.73;;
40955;SDS011;26687;48.254;11.454;2022-08-01T13:23:32;2.20;;;0.93;;
40955;SDS011;26687;48.254;11.454;2022-08-01T13:29:42;1.42;;;0.98;;
40955;SDS011;26687;48.254;11.454;2022-08-01T13:32:42;0.90;;;0.73;;
40955;SDS011;26687;48.254;11.454;2022-08-01T13:35:44;0.82;;;0.80;;
40955;SDS011;26687;48.254;11.454;2022-08-01T13:38:44;1.37;;;0.80;;
40955;SDS011;26687;48.254;11.454;2022-08-01T13:42:03;1.83;;;0.95;;
40955;SDS011;26687;48.254;11.454;2022-08-01T13:45:04;0.70;;;0.70;;
40955;SDS011;26687;48.254;11.454;2022-08-01T13:48:07;1.88;;;0.98;;
40955;SDS011;26687;48.254;11.454;2022-08-01T13:51:07;2.67;;;1.00;;
40955;SDS011;26687;48.254;11.454;2022-08-01T13:54:07;1.67;;;1.10;;
40955;SDS011;26687;48.254;11.454;2022-08-01T13:57:08;1.85;;;0.98;;
40955;SDS011;26687;48.254;11.454;2022-08-01T14:00:09;3.13;;;1.10;;
40955;SDS011;26687;48.254;11.454;2022-08-01T14:03:09;1.83;;;0.80;;
40955;SDS011;26687;48.254;11.454;2022-08-01T14:06:10;3.40;;;1.08;;
40955;SDS011;26687;48.254;11.454;2022-08-01T14:09:10;1.98;;;0.90;;
40955;SDS011;26687;48.254;11.454;2022-08-01T14:12:10;2.77;;;1.03;;
40955;SDS011;26687;48.254;11.454;2022-08-01T14:15:11;4.40;;;1.13;;
40955;SDS011;26687;48.254;11.454;2022-08-01T14:18:11;1.90;;;1.30;;
40955;SDS011;26687;48.254;11.454;2022-08-01T14:21:11;1.48;;;1.05;;
40955;SDS011;26687;48.254;11.454;2022-08-01T14:24:11;3.77;;;1.47;;
40955;SDS011;26687;48.254;11.454;2022-08-01T14:27:11;3.27;;;1.17;;
40955;SDS011;26687;48.254;11.454;2022-08-01T14:30:12;1.35;;;1.23;;
40955;SDS011;26687;48.254;11.454;2022-08-01T14:33:12;1.55;;;1.42;;
40955;SDS011;26687;48.254;11.454;2022-08-01T14:36:13;1.33;;;1.20;;
40955;SDS011;26687;48.254;11.454;2022-08-01T14:39:13;1.23;;;1.10;;
40955;SDS011;26687;48.254;11.454;2022-08-01T14:42:13;1.40;;;1.02;;
40955;SDS011;26687;48.254;11.454;2022-08-01T14:45:13;2.20;;;0.88;;
40955;SDS011;26687;48.254;11.454;2022-08-01T14:48:13;2.03;;;1.20;;
40955;SDS011;26687;48.254;11.454;2022-08-01T14:51:14;1.27;;;1.00;;
40955;SDS011;26687;48.254;11.454;2022-08-01T14:54:14;1.97;;;1.07;;
40955;SDS011;26687;48.254;11.454;2022-08-01T14:57:15;1.50;;;1.13;;
40955;SDS011;26687;48.254;11.454;2022-08-01T15:03:18;2.20;;;1.25;;
40955;SDS011;26687;48.254;11.454;2022-08-01T15:06:18;2.17;;;1.42;;
40955;SDS011;26687;48.254;11.454;2022-08-01T15:09:18;1.60;;;1.50;;
40955;SDS011;26687;48.254;11.454;2022-08-01T15:12:18;2.63;;;1.60;;
40955;SDS011;26687;48.254;11.454;2022-08-01T15:15:18;3.00;;;1.40;;
40955;SDS011;26687;48.254;11.454;2022-08-01T15:18:19;5.50;;;1.70;;
40955;SDS011;26687;48.254;11.454;2022-08-01T15:21:19;4.80;;;1.60;;
40955;SDS011;26687;48.254;11.454;2022-08-01T15:24:19;5.67;;;2.27;;
40955;SDS011;26687;48.254;11.454;2022-08-01T15:27:19;3.88;;;1.60;;
40955;SDS011;26687;48.254;11.454;2022-08-01T15:30:21;2.35;;;1.13;;
40955;SDS011;26687;48.254;11.454;2022-08-01T15:33:21;3.93;;;1.33;;
40955;SDS011;26687;48.254;11.454;2022-08-01T15:36:21;1.55;;;1.00;;
40955;SDS011;26687;48.254;11.454;2022-08-01T15:39:21;1.47;;;1.20;;
40955;SDS011;26687;48.254;11.454;2022-08-01T15:42:22;2.63;;;1.33;;
40955;SDS011;26687;48.254;11.454;2022-08-01T15:45:22;2.70;;;1.10;;
40955;SDS011;26687;48.254;11.454;2022-08-01T15:48:22;1.33;;;0.93;;
40955;SDS011;26687;48.254;11.454;2022-08-01T15:51:22;1.58;;;1.20;;
40955;SDS011;26687;48.254;11.454;2022-08-01T15:54:23;4.73;;;1.40;;
40955;SDS011;26687;48.254;11.454;2022-08-01T15:57:23;2.28;;;1.10;;
40955;SDS011;26687;48.254;11.454;2022-08-01T16:00:23;1.75;;;1.15;;
40955;SDS011;26687;48.254;11.454;2022-08-01T16:03:23;1.70;;;1.07;;
40955;SDS011;26687;48.254;11.454;2022-08-01T16:06:24;2.80;;;1.60;;
40955;SDS011;26687;48.254;11.454;2022-08-01T16:09:24;3.70;;;1.50;;
40955;SDS011;26687;48.254;11.454;2022-08-01T16:12:24;1.88;;;1.67;;
40955;SDS011;26687;48.254;11.454;2022-08-01T16:15:24;2.22;;;1.25;;
40955;SDS011;26687;48.254;11.454;2022-08-01T16:18:24;1.67;;;0.95;;
40955;SDS011;26687;48.254;11.454;2022-08-01T16:21:25;2.63;;;1.03;;
40955;SDS011;26687;48.254;11.454;2022-08-01T16:24:25;1.40;;;1.00;;
40955;SDS011;26687;48.254;11.454;2022-08-01T16:27:28;1.00;;;0.90;;
40955;SDS011;26687;48.254;11.454;2022-08-01T16:30:30;2.60;;;1.60;;
40955;SDS011;26687;48.254;11.454;2022-08-01T16:33:30;1.20;;;1.10;;
40955;SDS011;26687;48.254;11.454;2022-08-01T16:36:32;1.80;;;1.42;;
40955;SDS011;26687;48.254;11.454;2022-08-01T16:39:32;1.90;;;1.20;;
40955;SDS011;26687;48.254;11.454;2022-08-01T16:42:32;1.40;;;0.97;;
40955;SDS011;26687;48.254;11.454;2022-08-01T16:45:32;1.88;;;1.08;;
40955;SDS011;26687;48.254;11.454;2022-08-01T16:48:32;1.53;;;1.20;;
40955;SDS011;26687;48.254;11.454;2022-08-01T16:51:33;1.08;;;0.80;;
40955;SDS011;26687;48.254;11.454;2022-08-01T16:54:33;1.45;;;1.30;;
40955;SDS011;26687;48.254;11.454;2022-08-01T16:57:33;2.03;;;1.07;;
40955;SDS011;26687;48.254;11.454;2022-08-01T17:00:37;1.30;;;1.20;;
40955;SDS011;26687;48.254;11.454;2022-08-01T17:03:41;1.77;;;1.10;;
40955;SDS011;26687;48.254;11.454;2022-08-01T17:06:41;1.83;;;1.25;;
40955;SDS011;26687;48.254;11.454;2022-08-01T17:09:42;2.22;;;1.17;;
40955;SDS011;26687;48.254;11.454;2022-08-01T17:12:42;1.27;;;0.70;;
40955;SDS011;26687;48.254;11.454;2022-08-01T17:15:42;0.83;;;0.83;;
40955;SDS011;26687;48.254;11.454;2022-08-01T17:18:43;1.95;;;0.80;;
40955;SDS011;26687;48.254;11.454;2022-08-01T17:21:43;1.17;;;0.80;;
40955;SDS011;26687;48.254;11.454;2022-08-01T17:24:43;0.80;;;0.60;;
40955;SDS011;26687;48.254;11.454;2022-08-01T17:27:43;1.00;;;0.90;;
40955;SDS011;26687;48.254;11.454;2022-08-01T17:30:43;2.00;;;0.70;;
40955;SDS011;26687;48.254;11.454;2022-08-01T17:33:44;1.70;;;0.50;;
40955;SDS011;26687;48.254;11.454;2022-08-01T17:36:44;0.77;;;0.68;;
40955;SDS011;26687;48.254;11.454;2022-08-01T17:39:44;1.37;;;0.80;;
40955;SDS011;26687;48.254;11.454;2022-08-01T17:42:44;0.87;;;0.87;;
40955;SDS011;26687;48.254;11.454;2022-08-01T17:45:45;1.98;;;0.80;;
40955;SDS011;26687;48.254;11.454;2022-08-01T17:48:45;1.07;;;0.70;;
40955;SDS011;26687;48.254;11.454;2022-08-01T17:51:45;1.23;;;0.90;;
40955;SDS011;26687;48.254;11.454;2022-08-01T17:54:45;1.50;;;0.70;;
40955;SDS011;26687;48.254;11.454;2022-08-01T17:57:46;3.43;;;1.30;;
40955;SDS011;26687;48.254;11.454;2022-08-01T18:00:46;1.00;;;0.90;;
40955;SDS011;26687;48.254;11.454;2022-08-01T18:03:46;1.92;;;1.20;;
40955;SDS011;26687;48.254;11.454;2022-08-01T18:06:47;3.20;;;1.30;;
40955;SDS011;26687;48.254;11.454;2022-08-01T18:09:47;2.50;;;1.17;;
40955;SDS011;26687;48.254;11.454;2022-08-01T18:12:47;1.87;;;1.20;;
40955;SDS011;26687;48.254;11.454;2022-08-01T18:15:48;1.73;;;1.30;;
40955;SDS011;26687;48.254;11.454;2022-08-01T18:18:48;1.23;;;1.13;;
40955;SDS011;26687;48.254;11.454;2022-08-01T18:21:49;2.77;;;1.07;;
40955;SDS011;26687;48.254;11.454;2022-08-01T18:24:49;4.15;;;1.40;;
40955;SDS011;26687;48.254;11.454;2022-08-01T18:27:49;3.65;;;1.50;;
40955;SDS011;26687;48.254;11.454;2022-08-01T18:30:49;1.50;;;1.20;;